sensor_id;sensor_type;location;lat;lon;timestamp;P1;durP1;ratioP1;P2;durP2;ratioP2
79728;SDS011;69218;52.132;5.418;2023-05-10T00:02:10;13.73;;;5.15;;
79728;SDS011;69218;52.132;5.418;2023-05-10T00:04:40;18.08;;;6.63;;
79728;SDS011;69218;52.132;5.418;2023-05-10T00:07:10;13.25;;;5.22;;
79728;SDS011;69218;52.132;5.418;2023-05-10T00:09:36;15.38;;;6.43;;
79728;SDS011;69218;52.132;5.418;2023-05-10T00:12:03;14.50;;;6.05;;
79728;SDS011;69218;52.132;5.418;2023-05-10T00:14:29;13.52;;;5.80;;
79728;SDS011;69218;52.132;5.418;2023-05-10T00:16:56;15.88;;;6.43;;
79728;SDS011;69218;52.132;5.418;2023-05-10T00:19:23;14.82;;;5.95;;
79728;SDS011;69218;52.132;5.418;2023-05-10T00:21:49;14.02;;;6.00;;
79728;SDS011;69218;52.132;5.418;2023-05-10T00:24:16;18.40;;;7.75;;
79728;SDS011;69218;52.132;5.418;2023-05-10T00:26:42;13.80;;;6.15;;
79728;SDS011;69218;52.132;5.418;2023-05-10T00:29:09;18.75;;;7.15;;
79728;SDS011;69218;52.132;5.418;2023-05-10T00:31:35;16.63;;;6.63;;
79728;SDS011;69218;52.132;5.418;2023-05-10T00:34:02;20.17;;;8.48;;
79728;SDS011;69218;52.132;5.418;2023-05-10T00:36:30;18.67;;;7.25;;
79728;SDS011;69218;52.132;5.418;2023-05-10T00:38:57;15.02;;;6.65;;
79728;SDS011;69218;52.132;5.418;2023-05-10T00:41:24;18.42;;;7.35;;
79728;SDS011;69218;52.132;5.418;2023-05-10T00:43:50;23.80;;;9.25;;
79728;SDS011;69218;52.132;5.418;2023-05-10T00:46:17;16.17;;;7.32;;
79728;SDS011;69218;52.132;5.418;2023-05-10T00:48:44;25.42;;;10.07;;
79728;SDS011;69218;52.132;5.418;2023-05-10T00:51:11;31.00;;;10.75;;
79728;SDS011;69218;52.132;5.418;2023-05-10T00:53:38;30.83;;;10.63;;
79728;SDS011;69218;52.132;5.418;2023-05-10T00:56:05;33.55;;;11.80;;
79728;SDS011;69218;52.132;5.418;2023-05-10T00:58:31;26.23;;;10.63;;
79728;SDS011;69218;52.132;5.418;2023-05-10T01:00:58;28.67;;;10.60;;
79728;SDS011;69218;52.132;5.418;2023-05-10T01:03:27;26.92;;;10.93;;
79728;SDS011;69218;52.132;5.418;2023-05-10T01:05:54;34.15;;;11.60;;
79728;SDS011;69218;52.132;5.418;2023-05-10T01:08:21;27.73;;;10.30;;
79728;SDS011;69218;52.132;5.418;2023-05-10T01:10:48;26.83;;;10.50;;
79728;SDS011;69218;52.132;5.418;2023-05-10T01:13:18;31.25;;;11.15;;
79728;SDS011;69218;52.132;5.418;2023-05-10T01:15:56;29.42;;;10.57;;
79728;SDS011;69218;52.132;5.418;2023-05-10T01:18:23;32.55;;;11.82;;
79728;SDS011;69218;52.132;5.418;2023-05-10T01:20:54;28.98;;;10.35;;
79728;SDS011;69218;52.132;5.418;2023-05-10T01:23:41;32.35;;;12.02;;
79728;SDS011;69218;52.132;5.418;2023-05-10T01:35:17;33.28;;;12.23;;
79728;SDS011;69218;52.132;5.418;2023-05-10T01:37:57;28.17;;;10.20;;
79728;SDS011;69218;52.132;5.418;2023-05-10T01:41:12;35.20;;;12.07;;
79728;SDS011;69218;52.132;5.418;2023-05-10T01:43:51;27.02;;;10.48;;
79728;SDS011;69218;52.132;5.418;2023-05-10T01:49:10;33.53;;;11.98;;
79728;SDS011;69218;52.132;5.418;2023-05-10T01:51:44;30.48;;;10.73;;
79728;SDS011;69218;52.132;5.418;2023-05-10T01:54:15;38.30;;;13.30;;
79728;SDS011;69218;52.132;5.418;2023-05-10T01:56:47;39.65;;;12.55;;
79728;SDS011;69218;52.132;5.418;2023-05-10T01:59:18;32.97;;;11.15;;
79728;SDS011;69218;52.132;5.418;2023-05-10T02:01:46;29.77;;;10.85;;
79728;SDS011;69218;52.132;5.418;2023-05-10T02:04:16;31.60;;;10.63;;
79728;SDS011;69218;52.132;5.418;2023-05-10T02:06:45;31.35;;;10.80;;
79728;SDS011;69218;52.132;5.418;2023-05-10T02:09:14;30.88;;;11.45;;
79728;SDS011;69218;52.132;5.418;2023-05-10T02:11:42;28.17;;;10.40;;
79728;SDS011;69218;52.132;5.418;2023-05-10T02:14:10;32.47;;;11.52;;
79728;SDS011;69218;52.132;5.418;2023-05-10T02:16:37;37.47;;;12.65;;
79728;SDS011;69218;52.132;5.418;2023-05-10T02:19:05;32.53;;;11.90;;
79728;SDS011;69218;52.132;5.418;2023-05-10T02:21:34;36.53;;;12.27;;
79728;SDS011;69218;52.132;5.418;2023-05-10T02:24:02;34.67;;;12.10;;
79728;SDS011;69218;52.132;5.418;2023-05-10T02:26:31;35.42;;;13.40;;
79728;SDS011;69218;52.132;5.418;2023-05-10T02:29:00;34.53;;;11.90;;
79728;SDS011;69218;52.132;5.418;2023-05-10T02:31:32;34.97;;;12.20;;
79728;SDS011;69218;52.132;5.418;2023-05-10T02:34:00;33.70;;;11.98;;
79728;SDS011;69218;52.132;5.418;2023-05-10T02:36:28;31.50;;;11.40;;
79728;SDS011;69218;52.132;5.418;2023-05-10T02:38:58;33.83;;;12.90;;
79728;SDS011;69218;52.132;5.418;2023-05-10T02:41:28;38.15;;;13.05;;
79728;SDS011;69218;52.132;5.418;2023-05-10T02:43:57;32.67;;;11.15;;
79728;SDS011;69218;52.132;5.418;2023-05-10T02:46:27;35.08;;;12.20;;
79728;SDS011;69218;52.132;5.418;2023-05-10T02:48:54;36.28;;;12.73;;
79728;SDS011;69218;52.132;5.418;2023-05-10T02:51:20;33.55;;;12.50;;
79728;SDS011;69218;52.132;5.418;2023-05-10T02:53:51;36.72;;;13.32;;
79728;SDS011;69218;52.132;5.418;2023-05-10T02:58:52;28.67;;;11.05;;
79728;SDS011;69218;52.132;5.418;2023-05-10T03:01:18;33.78;;;11.70;;
79728;SDS011;69218;52.132;5.418;2023-05-10T03:03:45;35.47;;;12.57;;
79728;SDS011;69218;52.132;5.418;2023-05-10T03:06:11;41.15;;;13.50;;
79728;SDS011;69218;52.132;5.418;2023-05-10T03:08:38;43.30;;;13.52;;
79728;SDS011;69218;52.132;5.418;2023-05-10T03:11:24;46.38;;;15.55;;
79728;SDS011;69218;52.132;5.418;2023-05-10T03:16:52;44.75;;;14.40;;
79728;SDS011;69218;52.132;5.418;2023-05-10T03:19:32;50.33;;;15.15;;
79728;SDS011;69218;52.132;5.418;2023-05-10T03:22:03;44.45;;;14.07;;
79728;SDS011;69218;52.132;5.418;2023-05-10T03:24:36;45.70;;;15.15;;
79728;SDS011;69218;52.132;5.418;2023-05-10T03:27:04;43.03;;;13.50;;
79728;SDS011;69218;52.132;5.418;2023-05-10T03:29:32;42.60;;;13.75;;
79728;SDS011;69218;52.132;5.418;2023-05-10T03:31:59;44.40;;;13.35;;
79728;SDS011;69218;52.132;5.418;2023-05-10T03:34:26;44.65;;;13.23;;
79728;SDS011;69218;52.132;5.418;2023-05-10T03:36:53;43.17;;;12.70;;
79728;SDS011;69218;52.132;5.418;2023-05-10T03:39:19;47.85;;;13.75;;
79728;SDS011;69218;52.132;5.418;2023-05-10T03:41:47;41.72;;;12.88;;
79728;SDS011;69218;52.132;5.418;2023-05-10T03:44:14;47.20;;;14.23;;
79728;SDS011;69218;52.132;5.418;2023-05-10T03:46:40;37.97;;;12.27;;
79728;SDS011;69218;52.132;5.418;2023-05-10T03:49:07;41.83;;;12.70;;
79728;SDS011;69218;52.132;5.418;2023-05-10T03:51:34;40.30;;;12.60;;
79728;SDS011;69218;52.132;5.418;2023-05-10T03:54:00;44.55;;;13.73;;
79728;SDS011;69218;52.132;5.418;2023-05-10T03:56:27;47.28;;;13.93;;
79728;SDS011;69218;52.132;5.418;2023-05-10T03:58:53;42.92;;;12.07;;
79728;SDS011;69218;52.132;5.418;2023-05-10T04:01:20;41.67;;;12.90;;
79728;SDS011;69218;52.132;5.418;2023-05-10T04:03:46;41.65;;;12.82;;
79728;SDS011;69218;52.132;5.418;2023-05-10T04:06:13;44.72;;;13.60;;
79728;SDS011;69218;52.132;5.418;2023-05-10T04:08:40;46.45;;;12.93;;
79728;SDS011;69218;52.132;5.418;2023-05-10T04:11:07;40.80;;;13.07;;
79728;SDS011;69218;52.132;5.418;2023-05-10T04:13:35;45.17;;;12.57;;
79728;SDS011;69218;52.132;5.418;2023-05-10T04:16:01;46.35;;;14.23;;
79728;SDS011;69218;52.132;5.418;2023-05-10T04:18:28;41.45;;;12.40;;
79728;SDS011;69218;52.132;5.418;2023-05-10T04:20:55;42.50;;;12.82;;
79728;SDS011;69218;52.132;5.418;2023-05-10T04:23:21;41.63;;;13.50;;
79728;SDS011;69218;52.132;5.418;2023-05-10T04:25:48;39.33;;;11.70;;
79728;SDS011;69218;52.132;5.418;2023-05-10T04:28:15;40.08;;;12.45;;
79728;SDS011;69218;52.132;5.418;2023-05-10T04:30:41;39.42;;;13.35;;
79728;SDS011;69218;52.132;5.418;2023-05-10T04:33:08;42.67;;;12.85;;
79728;SDS011;69218;52.132;5.418;2023-05-10T04:35:34;46.58;;;13.20;;
79728;SDS011;69218;52.132;5.418;2023-05-10T04:38:01;34.13;;;11.93;;
79728;SDS011;69218;52.132;5.418;2023-05-10T04:40:28;39.00;;;12.45;;
79728;SDS011;69218;52.132;5.418;2023-05-10T04:42:54;39.10;;;12.82;;
79728;SDS011;69218;52.132;5.418;2023-05-10T04:45:22;38.13;;;12.35;;
79728;SDS011;69218;52.132;5.418;2023-05-10T04:47:49;43.50;;;12.60;;
79728;SDS011;69218;52.132;5.418;2023-05-10T04:50:15;42.53;;;13.38;;
79728;SDS011;69218;52.132;5.418;2023-05-10T04:52:42;41.35;;;13.88;;
79728;SDS011;69218;52.132;5.418;2023-05-10T04:55:09;43.95;;;13.40;;
79728;SDS011;69218;52.132;5.418;2023-05-10T04:57:36;45.28;;;13.27;;
79728;SDS011;69218;52.132;5.418;2023-05-10T05:00:03;45.72;;;14.10;;
79728;SDS011;69218;52.132;5.418;2023-05-10T05:02:30;38.20;;;12.70;;
79728;SDS011;69218;52.132;5.418;2023-05-10T05:04:57;38.45;;;12.15;;
79728;SDS011;69218;52.132;5.418;2023-05-10T05:07:24;35.83;;;12.27;;
79728;SDS011;69218;52.132;5.418;2023-05-10T05:09:50;36.90;;;12.32;;
79728;SDS011;69218;52.132;5.418;2023-05-10T05:12:17;36.90;;;12.27;;
79728;SDS011;69218;52.132;5.418;2023-05-10T05:14:43;43.28;;;13.55;;
79728;SDS011;69218;52.132;5.418;2023-05-10T05:17:10;43.75;;;13.43;;
79728;SDS011;69218;52.132;5.418;2023-05-10T05:19:37;39.67;;;12.27;;
79728;SDS011;69218;52.132;5.418;2023-05-10T05:22:04;47.22;;;14.38;;
79728;SDS011;69218;52.132;5.418;2023-05-10T05:24:34;49.15;;;14.23;;
79728;SDS011;69218;52.132;5.418;2023-05-10T05:27:02;47.90;;;15.20;;
79728;SDS011;69218;52.132;5.418;2023-05-10T05:29:29;43.53;;;13.77;;
79728;SDS011;69218;52.132;5.418;2023-05-10T05:31:55;46.03;;;14.02;;
79728;SDS011;69218;52.132;5.418;2023-05-10T05:34:22;45.13;;;13.73;;
79728;SDS011;69218;52.132;5.418;2023-05-10T05:36:49;40.67;;;12.60;;
79728;SDS011;69218;52.132;5.418;2023-05-10T05:39:15;47.08;;;14.50;;
79728;SDS011;69218;52.132;5.418;2023-05-10T05:41:42;43.33;;;14.45;;
79728;SDS011;69218;52.132;5.418;2023-05-10T05:44:10;39.72;;;14.00;;
79728;SDS011;69218;52.132;5.418;2023-05-10T05:46:36;41.92;;;14.00;;
79728;SDS011;69218;52.132;5.418;2023-05-10T05:49:03;41.55;;;14.57;;
79728;SDS011;69218;52.132;5.418;2023-05-10T05:51:30;46.97;;;14.40;;
79728;SDS011;69218;52.132;5.418;2023-05-10T05:53:57;42.72;;;14.05;;
79728;SDS011;69218;52.132;5.418;2023-05-10T05:56:25;45.90;;;15.23;;
79728;SDS011;69218;52.132;5.418;2023-05-10T05:58:51;40.63;;;14.77;;
79728;SDS011;69218;52.132;5.418;2023-05-10T06:01:18;44.50;;;13.77;;
79728;SDS011;69218;52.132;5.418;2023-05-10T06:03:45;43.55;;;14.48;;
79728;SDS011;69218;52.132;5.418;2023-05-10T06:06:12;44.75;;;14.73;;
79728;SDS011;69218;52.132;5.418;2023-05-10T06:08:38;38.25;;;12.88;;
79728;SDS011;69218;52.132;5.418;2023-05-10T06:11:05;36.47;;;13.90;;
79728;SDS011;69218;52.132;5.418;2023-05-10T06:13:32;33.08;;;12.23;;
79728;SDS011;69218;52.132;5.418;2023-05-10T06:15:59;38.67;;;13.18;;
79728;SDS011;69218;52.132;5.418;2023-05-10T06:18:26;38.13;;;12.80;;
79728;SDS011;69218;52.132;5.418;2023-05-10T06:20:56;38.38;;;12.70;;
79728;SDS011;69218;52.132;5.418;2023-05-10T06:23:23;39.33;;;13.10;;
79728;SDS011;69218;52.132;5.418;2023-05-10T06:25:51;34.53;;;12.10;;
79728;SDS011;69218;52.132;5.418;2023-05-10T06:28:18;36.83;;;12.70;;
79728;SDS011;69218;52.132;5.418;2023-05-10T06:30:45;37.42;;;12.48;;
79728;SDS011;69218;52.132;5.418;2023-05-10T06:33:12;30.02;;;11.30;;
79728;SDS011;69218;52.132;5.418;2023-05-10T06:35:44;38.10;;;12.27;;
79728;SDS011;69218;52.132;5.418;2023-05-10T06:38:11;32.65;;;10.88;;
79728;SDS011;69218;52.132;5.418;2023-05-10T06:40:42;31.00;;;10.88;;
79728;SDS011;69218;52.132;5.418;2023-05-10T06:43:11;27.58;;;9.98;;
79728;SDS011;69218;52.132;5.418;2023-05-10T06:45:41;29.67;;;9.68;;
79728;SDS011;69218;52.132;5.418;2023-05-10T06:48:08;27.20;;;9.40;;
79728;SDS011;69218;52.132;5.418;2023-05-10T06:50:41;28.95;;;9.93;;
79728;SDS011;69218;52.132;5.418;2023-05-10T06:53:11;27.83;;;10.13;;
79728;SDS011;69218;52.132;5.418;2023-05-10T06:55:40;25.00;;;8.65;;
79728;SDS011;69218;52.132;5.418;2023-05-10T06:58:09;23.35;;;8.43;;
79728;SDS011;69218;52.132;5.418;2023-05-10T07:00:36;24.17;;;7.68;;
79728;SDS011;69218;52.132;5.418;2023-05-10T07:03:06;21.60;;;8.43;;
79728;SDS011;69218;52.132;5.418;2023-05-10T07:05:33;19.90;;;7.25;;
79728;SDS011;69218;52.132;5.418;2023-05-10T07:08:00;20.75;;;7.30;;
79728;SDS011;69218;52.132;5.418;2023-05-10T07:10:27;18.50;;;6.63;;
79728;SDS011;69218;52.132;5.418;2023-05-10T07:12:54;18.73;;;6.78;;
79728;SDS011;69218;52.132;5.418;2023-05-10T07:15:21;16.38;;;6.88;;
79728;SDS011;69218;52.132;5.418;2023-05-10T07:17:49;13.70;;;5.70;;
79728;SDS011;69218;52.132;5.418;2023-05-10T07:20:16;17.35;;;5.93;;
79728;SDS011;69218;52.132;5.418;2023-05-10T07:22:42;16.83;;;6.13;;
79728;SDS011;69218;52.132;5.418;2023-05-10T07:25:09;15.38;;;5.75;;
79728;SDS011;69218;52.132;5.418;2023-05-10T07:27:36;15.00;;;5.60;;
79728;SDS011;69218;52.132;5.418;2023-05-10T07:30:03;15.38;;;6.15;;
79728;SDS011;69218;52.132;5.418;2023-05-10T07:32:30;17.58;;;5.65;;
79728;SDS011;69218;52.132;5.418;2023-05-10T07:34:58;15.77;;;6.47;;
79728;SDS011;69218;52.132;5.418;2023-05-10T07:37:27;14.88;;;5.75;;
79728;SDS011;69218;52.132;5.418;2023-05-10T07:39:54;15.15;;;5.72;;
79728;SDS011;69218;52.132;5.418;2023-05-10T07:42:20;14.63;;;6.10;;
79728;SDS011;69218;52.132;5.418;2023-05-10T07:44:48;16.58;;;6.00;;
79728;SDS011;69218;52.132;5.418;2023-05-10T07:47:14;16.35;;;5.57;;
79728;SDS011;69218;52.132;5.418;2023-05-10T07:49:41;15.13;;;5.57;;
79728;SDS011;69218;52.132;5.418;2023-05-10T07:52:08;15.15;;;5.78;;
79728;SDS011;69218;52.132;5.418;2023-05-10T07:54:35;17.02;;;5.63;;
79728;SDS011;69218;52.132;5.418;2023-05-10T07:57:01;15.98;;;6.18;;
79728;SDS011;69218;52.132;5.418;2023-05-10T07:59:28;15.75;;;5.95;;
79728;SDS011;69218;52.132;5.418;2023-05-10T08:04:34;13.68;;;5.15;;
79728;SDS011;69218;52.132;5.418;2023-05-10T08:07:01;14.75;;;5.38;;
79728;SDS011;69218;52.132;5.418;2023-05-10T08:09:28;14.63;;;5.15;;
79728;SDS011;69218;52.132;5.418;2023-05-10T08:11:56;13.82;;;5.43;;
79728;SDS011;69218;52.132;5.418;2023-05-10T08:14:23;15.13;;;5.45;;
79728;SDS011;69218;52.132;5.418;2023-05-10T08:16:49;12.25;;;5.35;;
79728;SDS011;69218;52.132;5.418;2023-05-10T08:19:16;14.25;;;5.47;;
79728;SDS011;69218;52.132;5.418;2023-05-10T08:21:45;14.10;;;5.70;;
79728;SDS011;69218;52.132;5.418;2023-05-10T08:24:12;14.68;;;5.90;;
79728;SDS011;69218;52.132;5.418;2023-05-10T08:26:40;14.70;;;6.03;;
79728;SDS011;69218;52.132;5.418;2023-05-10T08:29:08;14.15;;;5.88;;
79728;SDS011;69218;52.132;5.418;2023-05-10T08:31:36;14.80;;;5.78;;
79728;SDS011;69218;52.132;5.418;2023-05-10T08:34:03;15.15;;;6.38;;
79728;SDS011;69218;52.132;5.418;2023-05-10T08:36:29;14.93;;;5.45;;
79728;SDS011;69218;52.132;5.418;2023-05-10T08:38:56;16.42;;;6.25;;
79728;SDS011;69218;52.132;5.418;2023-05-10T08:41:23;13.48;;;5.72;;
79728;SDS011;69218;52.132;5.418;2023-05-10T08:43:52;13.60;;;6.30;;
79728;SDS011;69218;52.132;5.418;2023-05-10T08:46:20;13.05;;;6.07;;
79728;SDS011;69218;52.132;5.418;2023-05-10T08:48:49;13.60;;;5.55;;
79728;SDS011;69218;52.132;5.418;2023-05-10T08:51:19;17.63;;;6.63;;
79728;SDS011;69218;52.132;5.418;2023-05-10T08:53:51;16.60;;;6.75;;
79728;SDS011;69218;52.132;5.418;2023-05-10T08:56:18;15.07;;;6.05;;
79728;SDS011;69218;52.132;5.418;2023-05-10T08:58:46;12.63;;;6.20;;
79728;SDS011;69218;52.132;5.418;2023-05-10T09:01:13;14.73;;;6.13;;
79728;SDS011;69218;52.132;5.418;2023-05-10T09:03:42;13.73;;;5.85;;
79728;SDS011;69218;52.132;5.418;2023-05-10T09:06:10;12.30;;;5.03;;
79728;SDS011;69218;52.132;5.418;2023-05-10T09:08:39;10.98;;;4.93;;
79728;SDS011;69218;52.132;5.418;2023-05-10T09:11:11;13.80;;;5.70;;
79728;SDS011;69218;52.132;5.418;2023-05-10T09:13:42;12.60;;;5.72;;
79728;SDS011;69218;52.132;5.418;2023-05-10T09:16:47;11.05;;;5.40;;
79728;SDS011;69218;52.132;5.418;2023-05-10T09:19:14;12.23;;;5.85;;
79728;SDS011;69218;52.132;5.418;2023-05-10T09:21:41;8.70;;;4.05;;
79728;SDS011;69218;52.132;5.418;2023-05-10T09:24:08;8.95;;;4.50;;
79728;SDS011;69218;52.132;5.418;2023-05-10T09:29:42;9.02;;;3.90;;
79728;SDS011;69218;52.132;5.418;2023-05-10T09:34:49;7.45;;;3.17;;
79728;SDS011;69218;52.132;5.418;2023-05-10T09:39:56;7.55;;;3.08;;
79728;SDS011;69218;52.132;5.418;2023-05-10T09:42:36;6.63;;;2.75;;
79728;SDS011;69218;52.132;5.418;2023-05-10T09:45:07;7.85;;;3.30;;
79728;SDS011;69218;52.132;5.418;2023-05-10T09:50:47;6.47;;;3.20;;
79728;SDS011;69218;52.132;5.418;2023-05-10T09:53:23;6.13;;;2.83;;
79728;SDS011;69218;52.132;5.418;2023-05-10T09:55:49;7.50;;;2.95;;
79728;SDS011;69218;52.132;5.418;2023-05-10T09:58:17;6.57;;;3.25;;
79728;SDS011;69218;52.132;5.418;2023-05-10T10:00:47;8.05;;;2.83;;
79728;SDS011;69218;52.132;5.418;2023-05-10T10:03:18;6.00;;;2.45;;
79728;SDS011;69218;52.132;5.418;2023-05-10T10:05:47;6.32;;;2.90;;
79728;SDS011;69218;52.132;5.418;2023-05-10T10:08:14;6.82;;;3.00;;
79728;SDS011;69218;52.132;5.418;2023-05-10T10:10:42;6.88;;;3.00;;
79728;SDS011;69218;52.132;5.418;2023-05-10T10:13:12;7.40;;;2.92;;
79728;SDS011;69218;52.132;5.418;2023-05-10T10:15:39;8.38;;;3.58;;
79728;SDS011;69218;52.132;5.418;2023-05-10T10:18:08;6.30;;;3.13;;
79728;SDS011;69218;52.132;5.418;2023-05-10T10:20:40;8.70;;;3.17;;
79728;SDS011;69218;52.132;5.418;2023-05-10T10:23:07;9.77;;;3.03;;
79728;SDS011;69218;52.132;5.418;2023-05-10T10:25:34;7.30;;;3.28;;
79728;SDS011;69218;52.132;5.418;2023-05-10T10:28:16;6.53;;;3.08;;
79728;SDS011;69218;52.132;5.418;2023-05-10T10:34:22;6.70;;;2.95;;
79728;SDS011;69218;52.132;5.418;2023-05-10T10:36:54;7.43;;;3.20;;
79728;SDS011;69218;52.132;5.418;2023-05-10T10:39:23;7.70;;;3.30;;
79728;SDS011;69218;52.132;5.418;2023-05-10T10:41:55;8.23;;;3.50;;
79728;SDS011;69218;52.132;5.418;2023-05-10T10:47:36;10.20;;;4.22;;
79728;SDS011;69218;52.132;5.418;2023-05-10T10:50:04;7.82;;;3.25;;
79728;SDS011;69218;52.132;5.418;2023-05-10T10:52:36;6.38;;;3.30;;
79728;SDS011;69218;52.132;5.418;2023-05-10T10:55:08;6.32;;;2.85;;
79728;SDS011;69218;52.132;5.418;2023-05-10T10:57:50;7.50;;;3.38;;
79728;SDS011;69218;52.132;5.418;2023-05-10T11:00:19;7.85;;;2.78;;
79728;SDS011;69218;52.132;5.418;2023-05-10T11:02:47;6.15;;;3.05;;
79728;SDS011;69218;52.132;5.418;2023-05-10T11:07:54;4.80;;;2.63;;
79728;SDS011;69218;52.132;5.418;2023-05-10T11:10:24;5.78;;;2.80;;
79728;SDS011;69218;52.132;5.418;2023-05-10T11:12:53;6.00;;;3.00;;
79728;SDS011;69218;52.132;5.418;2023-05-10T11:15:34;5.47;;;2.72;;
79728;SDS011;69218;52.132;5.418;2023-05-10T11:18:18;8.07;;;3.63;;
79728;SDS011;69218;52.132;5.418;2023-05-10T11:21:05;6.47;;;2.85;;
79728;SDS011;69218;52.132;5.418;2023-05-10T11:26:07;7.43;;;2.60;;
79728;SDS011;69218;52.132;5.418;2023-05-10T11:28:41;6.45;;;2.75;;
79728;SDS011;69218;52.132;5.418;2023-05-10T11:31:15;6.53;;;3.05;;
79728;SDS011;69218;52.132;5.418;2023-05-10T11:33:53;7.22;;;3.00;;
79728;SDS011;69218;52.132;5.418;2023-05-10T11:36:24;5.82;;;2.88;;
79728;SDS011;69218;52.132;5.418;2023-05-10T11:38:52;5.43;;;2.63;;
79728;SDS011;69218;52.132;5.418;2023-05-10T11:41:20;6.38;;;3.00;;
79728;SDS011;69218;52.132;5.418;2023-05-10T11:43:50;7.35;;;2.78;;
79728;SDS011;69218;52.132;5.418;2023-05-10T11:46:20;8.20;;;3.10;;
79728;SDS011;69218;52.132;5.418;2023-05-10T11:48:51;4.88;;;2.47;;
79728;SDS011;69218;52.132;5.418;2023-05-10T11:51:22;7.72;;;2.72;;
79728;SDS011;69218;52.132;5.418;2023-05-10T11:53:50;5.90;;;2.92;;
79728;SDS011;69218;52.132;5.418;2023-05-10T11:56:19;5.57;;;2.50;;
79728;SDS011;69218;52.132;5.418;2023-05-10T11:58:54;5.05;;;2.00;;
79728;SDS011;69218;52.132;5.418;2023-05-10T12:01:22;4.82;;;2.08;;
79728;SDS011;69218;52.132;5.418;2023-05-10T12:03:50;6.68;;;2.45;;
79728;SDS011;69218;52.132;5.418;2023-05-10T12:06:18;5.95;;;2.08;;
79728;SDS011;69218;52.132;5.418;2023-05-10T12:08:46;4.95;;;2.22;;
79728;SDS011;69218;52.132;5.418;2023-05-10T12:11:14;4.40;;;2.13;;
79728;SDS011;69218;52.132;5.418;2023-05-10T12:13:44;4.38;;;2.25;;
79728;SDS011;69218;52.132;5.418;2023-05-10T12:16:17;5.55;;;2.00;;
79728;SDS011;69218;52.132;5.418;2023-05-10T12:18:49;3.28;;;1.48;;
79728;SDS011;69218;52.132;5.418;2023-05-10T12:21:20;4.57;;;1.63;;
79728;SDS011;69218;52.132;5.418;2023-05-10T12:23:49;4.30;;;1.70;;
79728;SDS011;69218;52.132;5.418;2023-05-10T12:26:16;4.75;;;1.83;;
79728;SDS011;69218;52.132;5.418;2023-05-10T12:28:43;4.88;;;2.10;;
79728;SDS011;69218;52.132;5.418;2023-05-10T12:31:10;4.22;;;1.98;;
79728;SDS011;69218;52.132;5.418;2023-05-10T12:33:37;4.85;;;2.00;;
79728;SDS011;69218;52.132;5.418;2023-05-10T12:38:33;3.75;;;1.65;;
79728;SDS011;69218;52.132;5.418;2023-05-10T12:41:08;3.03;;;1.65;;
79728;SDS011;69218;52.132;5.418;2023-05-10T12:43:36;3.28;;;1.50;;
79728;SDS011;69218;52.132;5.418;2023-05-10T12:48:35;3.63;;;1.38;;
79728;SDS011;69218;52.132;5.418;2023-05-10T12:51:03;4.18;;;1.58;;
79728;SDS011;69218;52.132;5.418;2023-05-10T12:53:30;5.13;;;1.80;;
79728;SDS011;69218;52.132;5.418;2023-05-10T12:55:57;3.50;;;1.55;;
79728;SDS011;69218;52.132;5.418;2023-05-10T12:58:24;4.80;;;1.65;;
79728;SDS011;69218;52.132;5.418;2023-05-10T13:01:01;3.53;;;1.45;;
79728;SDS011;69218;52.132;5.418;2023-05-10T13:03:28;4.65;;;1.60;;
79728;SDS011;69218;52.132;5.418;2023-05-10T13:05:54;4.38;;;1.45;;
79728;SDS011;69218;52.132;5.418;2023-05-10T13:08:20;4.97;;;1.27;;
79728;SDS011;69218;52.132;5.418;2023-05-10T13:10:47;2.92;;;1.60;;
79728;SDS011;69218;52.132;5.418;2023-05-10T13:13:14;5.78;;;1.40;;
79728;SDS011;69218;52.132;5.418;2023-05-10T13:15:41;3.35;;;1.48;;
79728;SDS011;69218;52.132;5.418;2023-05-10T13:18:07;4.15;;;1.52;;
79728;SDS011;69218;52.132;5.418;2023-05-10T13:20:34;3.38;;;2.10;;
79728;SDS011;69218;52.132;5.418;2023-05-10T13:23:01;7.25;;;2.85;;
79728;SDS011;69218;52.132;5.418;2023-05-10T13:25:28;6.15;;;2.72;;
79728;SDS011;69218;52.132;5.418;2023-05-10T13:27:55;6.13;;;2.90;;
79728;SDS011;69218;52.132;5.418;2023-05-10T13:30:21;6.93;;;2.83;;
79728;SDS011;69218;52.132;5.418;2023-05-10T13:32:49;7.50;;;2.85;;
79728;SDS011;69218;52.132;5.418;2023-05-10T13:35:16;9.85;;;3.53;;
79728;SDS011;69218;52.132;5.418;2023-05-10T13:37:43;6.43;;;2.92;;
79728;SDS011;69218;52.132;5.418;2023-05-10T13:40:10;7.75;;;3.40;;
79728;SDS011;69218;52.132;5.418;2023-05-10T13:42:37;7.25;;;2.95;;
79728;SDS011;69218;52.132;5.418;2023-05-10T13:45:04;7.18;;;2.70;;
79728;SDS011;69218;52.132;5.418;2023-05-10T13:47:31;7.68;;;2.92;;
79728;SDS011;69218;52.132;5.418;2023-05-10T13:49:57;8.10;;;3.05;;
79728;SDS011;69218;52.132;5.418;2023-05-10T13:52:24;9.02;;;3.10;;
79728;SDS011;69218;52.132;5.418;2023-05-10T13:54:50;7.32;;;2.70;;
79728;SDS011;69218;52.132;5.418;2023-05-10T13:57:21;7.25;;;2.80;;
79728;SDS011;69218;52.132;5.418;2023-05-10T13:59:47;8.27;;;3.42;;
79728;SDS011;69218;52.132;5.418;2023-05-10T14:02:14;7.15;;;3.15;;
79728;SDS011;69218;52.132;5.418;2023-05-10T14:04:40;7.18;;;3.15;;
79728;SDS011;69218;52.132;5.418;2023-05-10T14:07:07;7.15;;;3.30;;
79728;SDS011;69218;52.132;5.418;2023-05-10T14:09:34;8.98;;;3.38;;
79728;SDS011;69218;52.132;5.418;2023-05-10T14:12:00;6.60;;;2.75;;
79728;SDS011;69218;52.132;5.418;2023-05-10T14:14:26;6.78;;;2.95;;
79728;SDS011;69218;52.132;5.418;2023-05-10T14:16:55;7.28;;;3.03;;
79728;SDS011;69218;52.132;5.418;2023-05-10T14:19:21;7.00;;;2.72;;
79728;SDS011;69218;52.132;5.418;2023-05-10T14:21:48;8.80;;;3.40;;
79728;SDS011;69218;52.132;5.418;2023-05-10T14:24:14;6.28;;;2.75;;
79728;SDS011;69218;52.132;5.418;2023-05-10T14:26:41;7.70;;;3.22;;
79728;SDS011;69218;52.132;5.418;2023-05-10T14:29:07;8.90;;;3.33;;
79728;SDS011;69218;52.132;5.418;2023-05-10T14:31:37;7.07;;;2.92;;
79728;SDS011;69218;52.132;5.418;2023-05-10T14:34:04;8.27;;;2.95;;
79728;SDS011;69218;52.132;5.418;2023-05-10T14:36:30;8.88;;;3.15;;
79728;SDS011;69218;52.132;5.418;2023-05-10T14:38:57;8.30;;;3.50;;
79728;SDS011;69218;52.132;5.418;2023-05-10T14:41:24;8.80;;;2.78;;
79728;SDS011;69218;52.132;5.418;2023-05-10T14:43:50;5.80;;;2.65;;
79728;SDS011;69218;52.132;5.418;2023-05-10T14:46:17;8.18;;;3.22;;
79728;SDS011;69218;52.132;5.418;2023-05-10T14:48:47;7.97;;;3.10;;
79728;SDS011;69218;52.132;5.418;2023-05-10T14:51:13;7.47;;;2.85;;
79728;SDS011;69218;52.132;5.418;2023-05-10T14:53:40;8.20;;;3.10;;
79728;SDS011;69218;52.132;5.418;2023-05-10T14:56:06;8.60;;;3.28;;
79728;SDS011;69218;52.132;5.418;2023-05-10T14:58:33;9.50;;;3.95;;
79728;SDS011;69218;52.132;5.418;2023-05-10T15:00:59;8.27;;;3.55;;
79728;SDS011;69218;52.132;5.418;2023-05-10T15:03:27;10.50;;;3.78;;
79728;SDS011;69218;52.132;5.418;2023-05-10T15:05:54;9.70;;;3.58;;
79728;SDS011;69218;52.132;5.418;2023-05-10T15:08:22;9.88;;;3.90;;
79728;SDS011;69218;52.132;5.418;2023-05-10T15:10:50;8.50;;;3.80;;
79728;SDS011;69218;52.132;5.418;2023-05-10T15:13:17;10.40;;;3.90;;
79728;SDS011;69218;52.132;5.418;2023-05-10T15:15:43;8.88;;;4.05;;
79728;SDS011;69218;52.132;5.418;2023-05-10T15:18:10;9.50;;;4.35;;
79728;SDS011;69218;52.132;5.418;2023-05-10T15:20:36;7.70;;;3.78;;
79728;SDS011;69218;52.132;5.418;2023-05-10T15:23:03;9.32;;;4.07;;
79728;SDS011;69218;52.132;5.418;2023-05-10T15:25:29;8.93;;;3.70;;
79728;SDS011;69218;52.132;5.418;2023-05-10T15:27:56;8.35;;;4.20;;
79728;SDS011;69218;52.132;5.418;2023-05-10T15:30:22;8.63;;;3.67;;